Time;durP1;ratioP1;P1;durP2;ratioP2;P2;SDS_P1;SDS_P2;PMS_P1;PMS_P2;Temp;Humidity;BMP_temperature;BMP_pressure;BME280_temperature;BME280_humidity;BME280_pressure;Samples;Min_cycle;Max_cycle;Signal;HPM_P1;HPM_P2
2022/04/16 00:01:36;;;;;;;25.38;14.85;;;;;;;7.54;78.00;98880.59;4997069;28;20053;-69
2022/04/16 00:04:00;;;;;;;19.25;13.52;;;;;;;7.52;77.96;98886.00;5006023;28;20047;-75
2022/04/16 00:06:25;;;;;;;23.05;15.93;;;;;;;7.51;78.78;98884.31;5019163;28;20043;-75
2022/04/16 00:08:50;;;;;;;25.92;16.48;;;;;;;7.51;78.40;98883.47;5017109;28;20053;-66
2022/04/16 00:11:15;;;;;;;26.88;15.95;;;;;;;7.47;78.83;98879.31;5015577;28;20045;-72
2022/04/16 00:13:40;;;;;;;21.58;16.23;;;;;;;7.42;78.77;98884.97;5015818;28;20095;-71
2022/04/16 00:16:06;;;;;;;26.40;17.90;;;;;;;7.37;78.60;98886.25;5015534;28;20490;-64
2022/04/16 00:18:31;;;;;;;29.02;17.98;;;;;;;7.35;79.00;98881.03;5015850;28;20048;-64
2022/04/16 00:20:57;;;;;;;29.02;19.25;;;;;;;7.33;79.10;98884.78;5016280;28;20488;-65
2022/04/16 00:23:22;;;;;;;30.15;18.90;;;;;;;7.31;78.98;98882.22;4999804;28;20147;-64
2022/04/16 00:25:48;;;;;;;26.33;18.80;;;;;;;7.30;79.00;98883.19;5024763;28;20064;-67
2022/04/16 00:28:13;;;;;;;28.30;17.75;;;;;;;7.29;78.61;98884.13;5016279;28;20037;-68
2022/04/16 00:30:39;;;;;;;31.45;17.13;;;;;;;7.27;79.22;98878.94;4998897;28;20044;-71
2022/04/16 00:33:08;;;;;;;29.23;18.85;;;;;;;7.27;78.98;98883.38;5015568;28;20052;-70
2022/04/16 00:35:34;;;;;;;27.42;17.38;;;;;;;7.29;79.27;98884.13;5015418;28;20416;-68
2022/04/16 00:37:59;;;;;;;28.35;19.10;;;;;;;7.29;79.32;98886.78;4993369;28;20033;-70
2022/04/16 00:40:24;;;;;;;29.10;19.00;;;;;;;7.31;79.13;98873.44;4996951;28;20033;-74
2022/04/16 00:42:49;;;;;;;29.67;19.55;;;;;;;7.31;79.38;98887.53;5006950;28;20139;-71
2022/04/16 00:45:15;;;;;;;29.10;17.90;;;;;;;7.31;79.33;98887.53;4992212;28;20047;-73
2022/04/16 00:47:40;;;;;;;24.45;19.13;;;;;;;7.28;79.36;98877.13;5015699;28;20510;-80
2022/04/16 00:50:10;;;;;;;29.02;18.88;;;;;;;7.27;78.89;98881.59;5014498;28;20090;-74
2022/04/16 00:52:39;;;;;;;30.60;20.73;;;;;;;7.24;79.52;98870.34;5014652;28;20048;-73
2022/04/16 00:55:06;;;;;;;30.08;19.25;;;;;;;7.24;79.46;98876.50;5011648;28;20037;-69
2022/04/16 00:57:31;;;;;;;29.15;19.60;;;;;;;7.22;79.38;98874.94;5015013;28;20042;-76
2022/04/16 00:59:56;;;;;;;28.85;19.02;;;;;;;7.18;79.61;98874.28;4980479;28;20114;-72
2022/04/16 01:02:21;;;;;;;34.42;21.10;;;;;;;7.16;79.72;98872.69;5013309;28;20056;-74
2022/04/16 01:04:46;;;;;;;30.40;22.25;;;;;;;7.13;79.68;98881.69;5015202;28;20048;-72
2022/04/16 01:07:11;;;;;;;35.70;21.80;;;;;;;7.14;79.92;98874.59;5018286;28;20385;-71
2022/04/16 01:09:36;;;;;;;30.50;20.17;;;;;;;7.15;80.38;98879.78;4995550;28;20531;-77
2022/04/16 01:12:01;;;;;;;33.25;20.80;;;;;;;7.15;79.71;98876.28;5015068;28;20057;-72
2022/04/16 01:14:26;;;;;;;30.80;20.98;;;;;;;7.14;79.91;98886.03;5004582;28;20125;-70
2022/04/16 01:16:56;;;;;;;31.20;20.13;;;;;;;7.16;80.15;98875.34;5007063;28;20047;-72
2022/04/16 01:19:21;;;;;;;31.17;19.70;;;;;;;7.14;79.24;98890.50;5015959;28;20503;-76
2022/04/16 01:21:46;;;;;;;31.92;21.20;;;;;;;7.10;79.26;98884.59;5015925;28;20037;-76
2022/04/16 01:24:11;;;;;;;30.92;20.63;;;;;;;7.07;79.18;98894.53;5007456;28;20044;-78
2022/04/16 01:26:38;;;;;;;30.38;20.67;;;;;;;7.03;78.86;98880.63;4982446;28;20372;-76
2022/04/16 01:29:02;;;;;;;32.65;21.92;;;;;;;6.99;78.91;98880.97;5012952;28;20037;-73
2022/04/16 01:31:29;;;;;;;30.75;20.58;;;;;;;6.96;79.08;98875.88;5014921;28;20041;-75
2022/04/16 01:33:53;;;;;;;32.97;22.83;;;;;;;6.91;79.09;98882.34;5015929;28;20060;-67
2022/04/16 01:36:18;;;;;;;32.83;20.85;;;;;;;6.87;79.02;98883.53;5015399;28;20036;-65
2022/04/16 01:38:43;;;;;;;31.17;21.20;;;;;;;6.86;79.35;98887.13;5016381;28;20043;-71
2022/04/16 01:41:07;;;;;;;33.13;21.63;;;;;;;6.84;79.39;98889.03;5016541;28;20052;-68
2022/04/16 01:43:32;;;;;;;32.20;20.73;;;;;;;6.84;79.71;98885.53;5017055;28;20041;-69
2022/04/16 01:45:57;;;;;;;28.88;19.77;;;;;;;6.83;79.22;98889.13;5017051;28;20037;-69
2022/04/16 01:48:28;;;;;;;33.10;19.02;;;;;;;6.79;79.28;98883.16;5022362;28;20056;-68
2022/04/16 01:50:54;;;;;;;26.92;19.42;;;;;;;6.78;79.25;98883.28;5028640;28;20045;-69
2022/04/16 01:53:18;;;;;;;26.13;18.60;;;;;;;6.76;79.39;98880.75;5009037;28;20553;-71
2022/04/16 01:55:43;;;;;;;23.63;16.98;;;;;;;6.74;79.42;98887.94;5023797;28;20041;-71
2022/04/16 01:58:08;;;;;;;22.73;16.27;;;;;;;6.71;79.33;98877.56;5022090;28;20041;-69
2022/04/16 02:00:35;;;;;;;22.33;16.60;;;;;;;6.67;79.21;98884.00;5014234;28;20047;-72
2022/04/16 02:03:00;;;;;;;19.52;14.35;;;;;;;6.61;79.51;98889.72;5033549;28;20061;-71
2022/04/16 02:05:25;;;;;;;18.58;13.55;;;;;;;6.55;79.61;98898.06;5020866;28;20400;-69
2022/04/16 02:07:50;;;;;;;15.32;11.80;;;;;;;6.49;79.00;98898.50;5023787;28;20117;-71
2022/04/16 02:10:16;;;;;;;15.00;11.10;;;;;;;6.39;78.91;98898.25;5015298;28;20069;-72
2022/04/16 02:12:41;;;;;;;12.55;9.77;;;;;;;6.31;78.83;98897.06;5018878;28;20041;-77
2022/04/16 02:15:06;;;;;;;13.18;10.05;;;;;;;6.23;78.77;98904.66;5017326;28;20036;-67
2022/04/16 02:17:32;;;;;;;9.63;7.72;;;;;;;6.16;78.84;98897.13;5017641;28;20029;-70
2022/04/16 02:19:57;;;;;;;12.05;8.23;;;;;;;6.10;79.14;98901.94;5018677;28;20532;-68
2022/04/16 02:22:23;;;;;;;9.57;7.63;;;;;;;6.03;78.62;98906.81;5000554;28;20507;-68
2022/04/16 02:24:47;;;;;;;8.10;6.63;;;;;;;5.91;78.72;98902.28;4984955;28;20102;-65
2022/04/16 02:27:13;;;;;;;8.25;6.70;;;;;;;5.80;78.32;98910.88;5018501;28;20045;-66
2022/04/16 02:29:37;;;;;;;10.48;7.10;;;;;;;5.70;78.33;98914.22;5018605;28;20041;-72
2022/04/16 02:32:03;;;;;;;8.65;6.47;;;;;;;5.57;78.30;98919.41;5017950;28;20120;-69
2022/04/16 02:34:27;;;;;;;7.80;6.10;;;;;;;5.41;77.83;98919.53;5017493;28;20044;-66
2022/04/16 02:36:52;;;;;;;7.75;6.03;;;;;;;5.29;78.07;98924.72;5017829;28;20098;-68
2022/04/16 02:39:17;;;;;;;7.78;5.85;;;;;;;5.17;78.29;98925.47;5018427;28;20040;-68
2022/04/16 02:41:42;;;;;;;7.05;5.53;;;;;;;5.08;77.96;98937.44;5016932;28;20044;-67
2022/04/16 02:47:04;;;;;;;7.72;5.93;;;;;;;5.01;78.15;98938.75;5017992;28;20044;-66
2022/04/16 02:47:06;;;;;;;6.05;4.85;;;;;;;4.94;78.36;98943.56;5018329;28;20098;-61
2022/04/16 02:49:40;;;;;;;6.05;5.45;;;;;;;4.91;78.59;98945.53;5018069;28;20136;-63
2022/04/16 02:52:07;;;;;;;5.93;5.18;;;;;;;4.81;78.38;98947.03;5017994;28;20094;-62
2022/04/16 02:54:32;;;;;;;6.80;5.25;;;;;;;4.73;77.96;98943.06;5017768;28;20106;-63
2022/04/16 02:56:56;;;;;;;7.95;5.22;;;;;;;4.67;78.69;98948.69;5016880;28;20073;-63
2022/04/16 02:59:21;;;;;;;8.38;4.85;;;;;;;4.61;78.85;98949.06;5015631;28;20131;-64
2022/04/16 03:01:46;;;;;;;6.47;4.97;;;;;;;4.54;78.49;98946.84;5011934;28;20484;-63
2022/04/16 03:04:11;;;;;;;8.70;5.25;;;;;;;4.52;79.17;98946.06;5018097;28;20052;-64
2022/04/16 03:06:37;;;;;;;5.85;4.57;;;;;;;4.49;78.56;98954.19;5018142;28;20507;-61
2022/04/16 03:09:01;;;;;;;5.60;4.32;;;;;;;4.41;78.62;98964.31;5018692;28;20053;-62
2022/04/16 03:11:26;;;;;;;6.57;4.93;;;;;;;4.34;78.43;98959.41;5011427;28;20041;-62
2022/04/16 03:13:51;;;;;;;7.25;4.65;;;;;;;4.28;78.02;98965.03;5017935;28;20083;-64
2022/04/16 03:18:59;;;;;;;5.38;4.30;;;;;;;4.18;78.74;98971.75;5016874;28;20037;-64
2022/04/16 03:21:24;;;;;;;6.07;4.97;;;;;;;4.18;79.01;98979.66;5016403;28;20040;-63
2022/04/16 03:23:48;;;;;;;5.05;3.80;;;;;;;4.16;78.77;98978.06;5016865;28;20032;-62
2022/04/16 03:26:13;;;;;;;4.40;3.78;;;;;;;4.15;78.04;98979.00;5016836;28;20071;-63
2022/04/16 03:28:38;;;;;;;4.85;3.85;;;;;;;4.08;78.13;98974.97;5015980;28;20044;-62
2022/04/16 03:31:04;;;;;;;5.75;3.65;;;;;;;3.98;77.74;98974.66;5016134;28;20118;-62
2022/04/16 03:33:31;;;;;;;4.88;4.00;;;;;;;3.88;78.11;98984.84;4999563;28;20040;-63
2022/04/16 03:35:56;;;;;;;5.47;4.18;;;;;;;3.83;78.07;98981.63;5017488;28;20071;-65
2022/04/16 03:38:21;;;;;;;3.67;3.33;;;;;;;3.77;77.71;98978.47;5012997;28;20037;-69
2022/04/16 03:40:48;;;;;;;4.38;3.70;;;;;;;3.71;77.77;98984.09;5008803;28;20499;-67
2022/04/16 03:43:12;;;;;;;4.05;3.65;;;;;;;3.68;77.40;98981.59;5012755;28;20036;-67
2022/04/16 03:45:37;;;;;;;5.63;3.47;;;;;;;3.57;77.84;98990.94;5010873;28;20045;-67
2022/04/16 03:48:07;;;;;;;4.45;3.50;;;;;;;3.52;78.08;98992.09;5037801;28;20056;-68
2022/04/16 03:50:33;;;;;;;4.40;3.63;;;;;;;3.46;77.81;98989.81;5020803;28;20051;-66
2022/04/16 03:52:58;;;;;;;4.38;3.53;;;;;;;3.44;78.05;98995.16;5010505;28;20139;-67
2022/04/16 04:00:53;;;;;;;2.70;2.42;;;;;;;3.33;76.42;98986.13;5016911;28;20123;-65
2022/04/16 04:03:18;;;;;;;3.25;2.95;;;;;;;3.11;76.40;99003.03;4998345;28;20155;-65
2022/04/16 04:05:45;;;;;;;2.45;2.25;;;;;;;3.02;76.94;99000.88;4998795;28;20130;-65
2022/04/16 04:08:10;;;;;;;3.20;2.90;;;;;;;2.90;76.99;99012.03;4998255;28;20044;-64
2022/04/16 04:10:38;;;;;;;3.50;3.20;;;;;;;2.86;77.22;99008.69;4998642;28;20052;-64
2022/04/16 04:13:04;;;;;;;2.80;2.13;;;;;;;2.81;77.59;99010.72;5015180;28;20118;-65
2022/04/16 04:15:31;;;;;;;2.00;1.80;;;;;;;2.78;77.03;99012.66;5016105;28;20047;-66
2022/04/16 04:17:59;;;;;;;1.83;1.73;;;;;;;2.73;77.01;99018.13;4998059;28;20539;-66
2022/04/16 04:20:23;;;;;;;1.77;1.67;;;;;;;2.68;76.99;99014.88;5015866;28;20418;-66
2022/04/16 04:22:48;;;;;;;2.33;2.13;;;;;;;2.60;77.44;99017.03;5015658;28;20403;-65
2022/04/16 04:25:13;;;;;;;2.03;1.90;;;;;;;2.57;77.30;99022.47;5015669;28;20041;-64
2022/04/16 04:27:37;;;;;;;1.60;1.50;;;;;;;2.57;77.34;99019.81;4997886;28;20131;-66
2022/04/16 04:30:03;;;;;;;2.00;1.90;;;;;;;2.55;77.44;99030.41;5015912;28;20043;-66
2022/04/16 04:32:29;;;;;;;1.88;1.63;;;;;;;2.53;77.68;99037.53;5016012;28;20056;-65
2022/04/16 04:34:53;;;;;;;2.45;2.05;;;;;;;2.54;77.42;99033.13;4997673;28;20056;-65
2022/04/16 04:37:18;;;;;;;1.70;1.50;;;;;;;2.52;77.66;99046.34;4997504;28;20048;-65
2022/04/16 04:39:43;;;;;;;1.30;1.30;;;;;;;2.49;77.24;99054.38;4981039;28;20519;-65
2022/04/16 04:42:07;;;;;;;1.85;1.75;;;;;;;2.47;77.22;99045.72;4997816;28;20521;-65
2022/04/16 04:44:32;;;;;;;1.15;1.15;;;;;;;2.43;77.37;99056.47;5001840;28;20045;-65
2022/04/16 04:46:57;;;;;;;1.38;1.27;;;;;;;2.39;77.28;99065.41;5020100;28;20044;-65
2022/04/16 04:49:22;;;;;;;1.50;1.40;;;;;;;2.37;77.06;99062.84;5021793;28;20051;-65
2022/04/16 04:51:46;;;;;;;1.60;1.50;;;;;;;2.34;77.23;99064.81;5005924;28;20107;-65
2022/04/16 04:54:11;;;;;;;1.55;1.45;;;;;;;2.37;77.02;99068.13;5022902;28;20037;-66
2022/04/16 04:56:36;;;;;;;1.80;1.70;;;;;;;2.38;77.15;99063.72;5005483;28;20569;-65
2022/04/16 04:59:01;;;;;;;2.67;1.63;;;;;;;2.40;77.40;99067.13;5023164;28;20546;-65
2022/04/16 05:01:26;;;;;;;1.95;1.52;;;;;;;2.40;77.40;99062.72;5017189;28;20084;-66
2022/04/16 05:03:51;;;;;;;2.15;1.95;;;;;;;2.40;77.38;99067.97;5015259;28;20040;-65
2022/04/16 05:06:15;;;;;;;1.83;1.73;;;;;;;2.43;77.90;99073.09;5016029;28;20044;-68
2022/04/16 05:08:40;;;;;;;2.22;1.52;;;;;;;2.48;77.80;99076.34;4997431;28;20469;-68
2022/04/16 05:11:05;;;;;;;1.48;1.38;;;;;;;2.51;78.17;99067.47;4997282;28;20033;-70
2022/04/16 05:13:30;;;;;;;1.83;1.73;;;;;;;2.52;77.59;99077.91;4997134;28;20044;-69
2022/04/16 05:15:54;;;;;;;1.67;1.58;;;;;;;2.55;77.72;99064.63;5001331;28;20045;-68
2022/04/16 05:18:19;;;;;;;1.73;1.63;;;;;;;2.53;77.07;99073.50;4987587;28;20032;-67
2022/04/16 05:20:44;;;;;;;6.10;2.67;;;;;;;2.48;77.12;99081.59;4985999;28;20499;-69
2022/04/16 05:23:09;;;;;;;1.80;1.70;;;;;;;2.48;77.03;99086.88;4997181;28;20055;-68
2022/04/16 05:25:34;;;;;;;2.00;1.80;;;;;;;2.44;77.01;99066.91;5018553;28;20041;-66
2022/04/16 05:27:58;;;;;;;1.42;1.40;;;;;;;2.44;77.26;99068.69;5019048;28;20483;-66
2022/04/16 05:30:28;;;;;;;1.35;1.17;;;;;;;2.43;77.29;99070.47;5001617;28;20045;-68
2022/04/16 05:32:56;;;;;;;1.63;1.52;;;;;;;2.43;77.07;99072.25;5019461;28;20507;-70
2022/04/16 05:35:21;;;;;;;2.55;1.30;;;;;;;2.43;77.36;99073.09;5019476;28;20041;-71
2022/04/16 05:37:47;;;;;;;2.63;1.65;;;;;;;2.50;77.34;99069.25;5021791;28;20120;-70
2022/04/16 05:40:12;;;;;;;1.48;1.38;;;;;;;2.54;77.25;99065.53;5022932;28;20044;-70
2022/04/16 05:42:43;;;;;;;1.77;1.67;;;;;;;2.61;77.35;99066.09;5019504;28;20598;-72
2022/04/16 05:45:09;;;;;;;2.35;1.58;;;;;;;2.65;76.93;99066.81;5019239;28;20506;-73
2022/04/16 05:47:34;;;;;;;2.72;2.00;;;;;;;2.72;76.99;99074.31;5000977;28;20094;-71
2022/04/16 05:49:59;;;;;;;3.58;2.55;;;;;;;2.72;76.78;99089.25;5018734;28;20491;-71
2022/04/16 05:52:24;;;;;;;3.35;2.08;;;;;;;2.71;76.94;99090.22;5000771;28;20049;-70
2022/04/16 05:54:51;;;;;;;1.48;1.38;;;;;;;2.74;76.58;99076.88;5017034;28;20041;-72
2022/04/16 05:57:17;;;;;;;1.33;1.23;;;;;;;2.69;76.39;99078.91;5018514;28;20102;-72
2022/04/16 05:59:43;;;;;;;1.83;1.70;;;;;;;2.67;76.39;99078.13;4967490;28;20044;-73
2022/04/16 06:02:10;;;;;;;2.78;1.60;;;;;;;2.69;76.59;99084.16;5018250;28;20141;-72
2022/04/16 06:04:35;;;;;;;4.00;2.33;;;;;;;2.69;76.39;99097.31;5018413;28;20044;-73
2022/04/16 06:07:00;;;;;;;1.65;1.55;;;;;;;2.68;76.33;99083.31;5000737;28;20052;-71
2022/04/16 06:09:24;;;;;;;2.05;1.45;;;;;;;2.69;76.17;99081.53;4983863;28;20041;-71
2022/04/16 06:11:51;;;;;;;2.95;1.25;;;;;;;2.72;76.47;99084.00;5018087;28;20068;-72
2022/04/16 06:14:16;;;;;;;1.70;1.35;;;;;;;2.71;76.53;99090.22;5018265;28;20566;-73
2022/04/16 06:16:41;;;;;;;2.20;1.92;;;;;;;2.75;76.26;99083.84;5016788;28;20557;-71
2022/04/16 06:19:06;;;;;;;2.40;1.90;;;;;;;2.78;76.37;99087.19;5000363;28;20495;-71
2022/04/16 06:21:31;;;;;;;2.65;1.58;;;;;;;2.80;76.10;99081.88;5000436;28;20514;-70
2022/04/16 06:23:57;;;;;;;2.58;1.80;;;;;;;2.87;75.95;99075.34;5000056;28;20037;-71
2022/04/16 06:26:22;;;;;;;1.77;1.60;;;;;;;2.88;76.28;99079.69;5018050;28;20131;-72
2022/04/16 06:28:47;;;;;;;2.97;1.90;;;;;;;2.89;76.11;99074.34;4999917;28;20185;-72
2022/04/16 06:31:11;;;;;;;1.55;1.45;;;;;;;2.93;75.36;99075.06;4999936;28;20056;-70
2022/04/16 06:33:36;;;;;;;2.88;1.10;;;;;;;3.15;75.08;99075.69;4999755;28;20499;-66
2022/04/16 06:36:01;;;;;;;4.13;2.13;;;;;;;3.02;74.61;99071.13;4998921;28;20045;-68
2022/04/16 06:38:29;;;;;;;2.28;1.85;;;;;;;2.98;74.68;99080.09;5017559;28;20060;-67
2022/04/16 06:40:54;;;;;;;2.00;1.80;;;;;;;2.95;75.00;99082.88;5018565;28;20479;-66
2022/04/16 06:43:19;;;;;;;1.77;1.67;;;;;;;3.00;74.60;99094.03;4999790;28;20549;-66
2022/04/16 06:45:49;;;;;;;1.80;1.67;;;;;;;3.02;74.56;99102.72;5000196;28;20060;-66
2022/04/16 06:48:14;;;;;;;2.28;1.48;;;;;;;3.07;74.36;99112.06;5016198;28;20044;-66
2022/04/16 06:50:38;;;;;;;4.75;1.73;;;;;;;3.03;74.87;99117.59;4967007;28;20047;-66
2022/04/16 06:53:03;;;;;;;1.80;1.63;;;;;;;3.02;74.52;99118.50;5001066;28;20392;-66
2022/04/16 06:55:28;;;;;;;4.10;1.13;;;;;;;3.00;74.43;99115.09;5017642;28;20055;-67
2022/04/16 06:57:53;;;;;;;4.88;1.63;;;;;;;2.97;74.47;99116.09;4999633;28;20072;-67
2022/04/16 07:00:17;;;;;;;2.20;1.15;;;;;;;2.99;74.81;99143.22;4983078;28;20048;-67
2022/04/16 07:02:42;;;;;;;4.13;1.27;;;;;;;2.99;74.25;99131.81;4999350;28;20053;-67
2022/04/16 07:05:07;;;;;;;1.95;1.38;;;;;;;2.99;73.97;99135.31;5017117;28;20056;-67
2022/04/16 07:07:32;;;;;;;2.17;1.55;;;;;;;2.97;74.57;99144.22;5017035;28;20048;-66
2022/04/16 07:09:57;;;;;;;1.25;1.23;;;;;;;3.03;74.65;99151.81;4983138;28;20041;-67
2022/04/16 07:12:22;;;;;;;2.38;1.80;;;;;;;3.10;74.84;99156.72;4982878;28;20446;-66
2022/04/16 07:14:47;;;;;;;8.27;2.63;;;;;;;3.14;74.30;99160.06;5016136;28;20496;-66
2022/04/16 07:17:11;;;;;;;1.75;1.65;;;;;;;3.15;73.80;99174.94;4982714;28;20041;-65
2022/04/16 07:19:36;;;;;;;2.17;1.77;;;;;;;3.08;74.13;99169.09;4982399;28;20558;-65
2022/04/16 07:22:01;;;;;;;1.63;1.52;;;;;;;3.10;74.64;99169.03;4999440;28;20052;-67
2022/04/16 07:24:27;;;;;;;2.35;1.42;;;;;;;3.15;73.92;99178.41;4999426;28;20610;-65
2022/04/16 07:26:53;;;;;;;3.35;1.90;;;;;;;3.18;73.42;99177.38;5017050;28;20048;-66
2022/04/16 07:29:19;;;;;;;3.25;2.25;;;;;;;3.09;73.92;99189.22;4982872;28;20124;-67
2022/04/16 07:31:44;;;;;;;2.40;2.03;;;;;;;3.02;73.92;99179.94;5018456;28;20431;-66
2022/04/16 07:34:08;;;;;;;4.65;2.30;;;;;;;2.99;74.53;99193.25;5000090;28;20455;-68
2022/04/16 07:36:33;;;;;;;5.05;2.22;;;;;;;3.01;74.52;99196.66;4999591;28;20438;-66
2022/04/16 07:38:58;;;;;;;4.43;2.33;;;;;;;3.00;74.63;99189.69;5016997;28;20560;-66
2022/04/16 07:41:23;;;;;;;3.30;2.63;;;;;;;3.01;74.64;99201.06;5016758;28;20045;-67
2022/04/16 07:43:47;;;;;;;2.13;1.88;;;;;;;2.95;74.12;99194.31;4998913;28;20045;-66
2022/04/16 07:46:15;;;;;;;2.10;1.95;;;;;;;2.90;74.39;99193.69;5015215;28;20114;-66
2022/04/16 07:48:39;;;;;;;2.60;2.20;;;;;;;2.86;74.24;99200.00;4982130;28;20041;-65
2022/04/16 07:51:05;;;;;;;14.70;2.38;;;;;;;2.86;74.62;99200.88;5015474;28;20041;-66
2022/04/16 07:53:29;;;;;;;3.40;2.17;;;;;;;2.86;74.78;99198.22;4982181;28;20044;-67
2022/04/16 07:55:54;;;;;;;2.65;2.20;;;;;;;2.86;74.80;99200.00;5016468;28;20044;-65
2022/04/16 07:58:19;;;;;;;5.00;2.05;;;;;;;2.84;74.46;99191.31;5016176;28;20049;-66
2022/04/16 08:00:44;;;;;;;4.35;3.30;;;;;;;2.83;74.49;99205.41;5016491;28;20546;-66
2022/04/16 08:03:08;;;;;;;2.92;2.17;;;;;;;2.79;74.65;99206.50;4998585;28;20458;-66
2022/04/16 08:05:33;;;;;;;3.78;2.30;;;;;;;2.78;74.42;99210.06;4981892;28;20048;-66
2022/04/16 08:07:58;;;;;;;3.05;2.00;;;;;;;2.75;74.30;99204.91;4998569;28;20063;-66
2022/04/16 08:10:24;;;;;;;1.95;1.75;;;;;;;2.71;74.56;99212.09;4981705;28;20469;-67
2022/04/16 08:12:48;;;;;;;3.30;1.83;;;;;;;2.64;74.09;99205.44;4981917;28;20527;-65
2022/04/16 08:15:13;;;;;;;1.85;1.73;;;;;;;2.54;74.43;99207.63;4981807;28;20474;-68
2022/04/16 08:17:38;;;;;;;2.67;2.10;;;;;;;2.50;74.78;99211.31;4998422;28;20097;-66
2022/04/16 08:20:05;;;;;;;3.20;1.75;;;;;;;2.50;75.01;99210.47;4998663;28;20064;-67
2022/04/16 08:22:32;;;;;;;1.48;1.38;;;;;;;2.45;75.02;99217.72;4998536;28;20131;-66
2022/04/16 08:27:43;;;;;;;1.48;1.38;;;;;;;2.36;74.82;99229.53;4998142;28;20041;-66
2022/04/16 08:30:09;;;;;;;2.45;2.13;;;;;;;2.33;75.26;99229.66;5015137;28;20044;-67
2022/04/16 08:32:35;;;;;;;2.65;2.13;;;;;;;2.34;75.26;99227.88;4998310;28;20118;-66
2022/04/16 08:34:59;;;;;;;2.95;2.00;;;;;;;2.36;75.30;99232.16;5016114;28;20048;-67
2022/04/16 08:37:24;;;;;;;3.67;2.25;;;;;;;2.34;75.19;99236.63;5015705;28;20040;-69
2022/04/16 08:39:49;;;;;;;2.55;1.85;;;;;;;2.35;75.87;99234.84;5016041;28;20052;-73
2022/04/16 08:42:14;;;;;;;4.07;2.03;;;;;;;2.41;75.29;99234.56;4981349;28;20036;-72
2022/04/16 08:44:39;;;;;;;2.50;2.13;;;;;;;2.43;75.24;99232.72;5015701;28;20055;-73
2022/04/16 08:47:05;;;;;;;2.67;2.25;;;;;;;2.44;75.33;99237.91;4981778;28;20041;-73
2022/04/16 08:49:31;;;;;;;3.47;1.88;;;;;;;2.41;75.04;99248.56;5014451;28;20589;-72
2022/04/16 08:51:56;;;;;;;2.28;2.08;;;;;;;2.41;75.29;99243.31;5016207;28;20041;-73
2022/04/16 08:54:21;;;;;;;3.75;2.33;;;;;;;2.41;75.20;99242.44;5015944;28;20098;-72
2022/04/16 08:56:46;;;;;;;3.25;2.47;;;;;;;2.45;75.34;99257.19;5016388;28;20053;-72
2022/04/16 08:59:11;;;;;;;4.13;2.50;;;;;;;2.53;75.31;99249.78;4980778;28;20100;-72
2022/04/16 09:01:36;;;;;;;2.50;2.28;;;;;;;2.55;75.21;99255.84;4997797;28;20080;-72
2022/04/16 09:04:01;;;;;;;3.05;1.80;;;;;;;2.64;75.26;99255.44;5014274;28;20041;-73
2022/04/16 09:06:27;;;;;;;3.22;2.42;;;;;;;2.69;75.34;99257.84;4997505;28;20037;-74
2022/04/16 09:08:52;;;;;;;2.53;2.28;;;;;;;2.75;74.54;99262.81;4981169;28;20123;-70
2022/04/16 09:11:24;;;;;;;2.60;1.52;;;;;;;2.80;74.43;99256.44;4997993;28;20131;-71
2022/04/16 09:13:53;;;;;;;3.03;2.13;;;;;;;2.81;73.92;99252.88;4997719;28;20051;-70
2022/04/16 09:16:19;;;;;;;6.57;2.17;;;;;;;2.84;74.17;99254.50;4997915;28;20079;-72
2022/04/16 09:18:47;;;;;;;2.25;1.98;;;;;;;2.93;74.15;99256.72;5015494;28;20041;-71
2022/04/16 09:21:15;;;;;;;2.33;2.13;;;;;;;2.99;74.04;99240.63;4998049;28;20049;-70
2022/04/16 09:23:50;;;;;;;3.58;2.60;;;;;;;3.08;74.11;99248.09;4981116;28;20479;-71
2022/04/16 09:26:27;;;;;;;;;;;;;;;3.18;73.18;99257.25;5015617;28;20052;-71
2022/04/16 09:28:55;;;;;;;2.00;1.70;;;;;;;3.15;73.19;99246.91;5015958;28;19921;-71
2022/04/16 09:31:27;;;;;;;3.38;2.08;;;;;;;3.19;73.10;99248.44;4981333;28;20191;-70
2022/04/16 09:33:52;;;;;;;3.67;2.47;;;;;;;3.15;73.02;99256.56;5015759;28;20531;-70
2022/04/16 09:36:24;;;;;;;5.68;2.40;;;;;;;3.17;73.01;99263.44;4997935;28;20733;-70
2022/04/16 09:38:49;;;;;;;2.92;2.53;;;;;;;3.10;72.53;99264.69;4981051;28;20037;-71
2022/04/16 09:41:16;;;;;;;2.83;2.22;;;;;;;3.11;72.70;99269.03;4997555;28;20063;-71
2022/04/16 09:43:41;;;;;;;2.65;2.28;;;;;;;3.11;72.30;99279.56;5015528;28;20055;-73
2022/04/16 09:46:12;;;;;;;3.65;2.55;;;;;;;3.17;72.59;99270.50;5014878;28;20040;-72
2022/04/16 09:48:37;;;;;;;2.22;1.65;;;;;;;3.21;72.49;99283.47;4997571;28;20065;-72
2022/04/16 09:51:04;;;;;;;2.92;2.50;;;;;;;3.23;72.41;99284.25;4998027;28;20048;-71
2022/04/16 09:53:30;;;;;;;2.60;2.40;;;;;;;3.25;72.26;99285.03;4997445;28;20070;-70
2022/04/16 09:55:58;;;;;;;2.30;2.05;;;;;;;3.28;72.19;99300.69;5015943;28;20077;-69
2022/04/16 09:58:31;;;;;;;2.28;1.83;;;;;;;3.37;72.27;99303.81;5017039;28;20065;-67
2022/04/16 10:00:56;;;;;;;2.17;1.92;;;;;;;3.42;72.09;99312.34;4998401;28;20051;-70
2022/04/16 10:03:21;;;;;;;2.08;1.95;;;;;;;3.43;71.67;99306.16;4998094;28;20119;-70
2022/04/16 10:05:46;;;;;;;2.80;2.20;;;;;;;3.41;71.27;99294.81;5015344;28;20037;-69
2022/04/16 10:08:13;;;;;;;5.28;2.42;;;;;;;3.38;71.16;99316.06;4997041;28;20056;-72
2022/04/16 10:10:42;;;;;;;2.28;2.05;;;;;;;3.37;70.96;99303.81;4998939;28;20549;-71
2022/04/16 10:13:10;;;;;;;5.20;2.35;;;;;;;3.32;70.57;99322.47;5027258;28;20052;-74
2022/04/16 10:16:04;;;;;;;3.38;2.50;;;;;;;3.35;71.04;99316.22;5029701;28;20407;-72
2022/04/16 10:18:37;;;;;;;3.10;2.50;;;;;;;3.29;70.68;99318.19;5026288;28;20047;-70
2022/04/16 10:21:03;;;;;;;2.88;2.17;;;;;;;3.27;70.78;99303.41;5001572;28;20040;-71
2022/04/16 10:23:38;;;;;;;2.15;1.98;;;;;;;3.41;71.15;99322.03;5000994;28;20128;-69
2022/04/16 10:26:09;;;;;;;4.72;3.00;;;;;;;3.40;70.06;99320.31;5018753;28;20041;-69
2022/04/16 10:28:38;;;;;;;2.40;2.20;;;;;;;3.36;69.94;99320.56;5019305;28;20051;-69
2022/04/16 10:31:03;;;;;;;3.00;2.17;;;;;;;3.31;70.32;99319.91;5004124;28;20044;-71
2022/04/16 10:33:28;;;;;;;3.53;2.78;;;;;;;3.31;70.35;99344.47;5020820;28;20056;-71
2022/04/16 10:35:59;;;;;;;7.15;2.53;;;;;;;3.29;69.95;99336.63;5028102;28;20036;-71
2022/04/16 10:38:34;;;;;;;3.05;2.55;;;;;;;3.32;70.15;99338.28;5021830;28;20044;-71
2022/04/16 10:41:09;;;;;;;2.60;2.03;;;;;;;3.34;69.84;99335.56;5020462;28;20564;-72
2022/04/16 10:43:34;;;;;;;3.28;2.58;;;;;;;3.31;69.54;99340.97;5002624;28;20411;-72
2022/04/16 10:46:04;;;;;;;2.40;1.98;;;;;;;3.32;69.21;99330.38;5019106;28;20415;-73
2022/04/16 10:48:34;;;;;;;2.83;2.13;;;;;;;3.21;69.02;99333.50;5001452;28;20056;-75
2022/04/16 10:51:00;;;;;;;3.03;2.20;;;;;;;3.21;69.20;99340.56;5001047;28;20403;-76
2022/04/16 10:53:33;;;;;;;3.45;2.35;;;;;;;3.25;68.89;99342.13;5016717;28;20049;-69
2022/04/16 10:56:20;;;;;;;5.70;2.92;;;;;;;3.30;68.61;99345.41;5014949;28;20423;-70
2022/04/16 10:58:47;;;;;;;2.42;2.00;;;;;;;3.27;68.57;99341.13;5018073;28;20393;-70
2022/04/16 11:01:23;;;;;;;3.53;2.53;;;;;;;3.35;68.85;99350.47;5017706;28;20041;-70
2022/04/16 11:03:49;;;;;;;3.45;2.85;;;;;;;3.27;68.92;99354.28;5018799;28;20044;-72
2022/04/16 11:06:16;;;;;;;3.05;2.13;;;;;;;3.27;68.71;99354.28;5018950;28;20056;-70
2022/04/16 11:08:42;;;;;;;3.42;2.55;;;;;;;3.27;68.57;99338.47;5018530;28;20045;-71
2022/04/16 11:11:11;;;;;;;2.55;2.35;;;;;;;3.33;68.37;99362.84;5014053;28;20163;-70
2022/04/16 11:13:38;;;;;;;2.78;2.50;;;;;;;3.20;68.38;99355.50;5018653;28;20041;-70
2022/04/16 11:16:03;;;;;;;2.63;1.92;;;;;;;3.18;68.20;99360.00;5001138;28;20037;-71
2022/04/16 11:18:42;;;;;;;2.88;2.28;;;;;;;3.16;68.16;99361.84;5000777;28;20041;-64
2022/04/16 11:21:09;;;;;;;3.97;2.65;;;;;;;3.11;68.22;99389.31;4984574;28;20086;-66
2022/04/16 11:23:46;;;;;;;2.10;1.55;;;;;;;3.15;68.15;99377.72;5012170;28;20444;-67
2022/04/16 11:34:25;;;;;;;2.33;1.80;;;;;;;3.03;68.82;99394.94;5019150;28;20131;-68
2022/04/16 11:36:51;;;;;;;3.70;2.75;;;;;;;3.02;68.88;99401.13;5016202;28;20153;-67
2022/04/16 11:39:23;;;;;;;3.83;2.33;;;;;;;3.10;68.67;99411.31;5017111;28;20131;-66
2022/04/16 11:41:55;;;;;;;2.60;2.17;;;;;;;3.10;68.64;99406.91;5018756;28;20033;-68
2022/04/16 11:44:45;;;;;;;3.65;2.67;;;;;;;3.06;68.40;99407.94;5014839;28;20056;-64
2022/04/16 11:47:20;;;;;;;2.35;1.92;;;;;;;3.03;68.37;99401.97;4986234;28;20503;-67
2022/04/16 11:49:48;;;;;;;2.63;2.30;;;;;;;3.03;68.71;99426.53;5007944;28;20045;-67
2022/04/16 11:52:13;;;;;;;3.35;2.65;;;;;;;3.07;68.48;99425.47;4973276;28;20047;-68
2022/04/16 11:54:38;;;;;;;3.72;2.00;;;;;;;3.04;68.75;99420.34;5016236;28;20507;-68